Time;durP1;ratioP1;P1;durP2;ratioP2;P2;SDS_P1;SDS_P2;PMS_P1;PMS_P2;Temp;Humidity;BMP_temperature;BMP_pressure;BME280_temperature;BME280_humidity;BME280_pressure;Samples;Min_cycle;Max_cycle;Signal;HPM_P1;HPM_P2
2022/09/04 00:02:39;;;;;;;10.15;4.10;;;;;;;19.48;52.54;101364.38;5056394;28;20027;-77
2022/09/04 00:05:32;;;;;;;8.77;4.20;;;;;;;19.51;52.37;101369.19;5042244;28;20082;-78
2022/09/04 00:08:35;;;;;;;7.05;4.25;;;;;;;19.37;53.02;101370.19;5053035;28;20120;-76
2022/09/04 00:11:22;;;;;;;6.53;4.32;;;;;;;19.41;52.60;101370.94;5038038;28;20155;-78
2022/09/04 00:13:57;;;;;;;5.82;4.53;;;;;;;19.15;53.39;101375.38;5059009;28;20484;-77
2022/09/04 00:16:49;;;;;;;6.13;4.28;;;;;;;19.44;52.78;101364.44;5055502;28;20037;-78
2022/09/04 00:19:32;;;;;;;4.75;3.63;;;;;;;19.35;53.03;101381.16;5033318;28;20044;-79
2022/09/04 00:21:59;;;;;;;;;;;;;;;19.36;52.81;101384.84;5038284;28;20381;-79
2022/09/04 00:24:49;;;;;;;4.40;3.97;;;;;;;19.06;53.77;101384.41;5054776;28;20387;-77
2022/09/04 00:27:25;;;;;;;9.77;4.50;;;;;;;19.06;54.06;101383.63;5052419;28;20131;-78
2022/09/04 00:29:57;;;;;;;6.82;4.63;;;;;;;19.20;53.26;101382.59;5055965;28;20028;-78
2022/09/04 00:32:50;;;;;;;6.67;4.27;;;;;;;19.07;53.95;101382.38;5056301;28;20166;-79
2022/09/04 00:35:39;;;;;;;5.93;4.72;;;;;;;19.21;53.38;101387.88;5040715;28;20852;-78
2022/09/04 00:38:33;;;;;;;6.80;4.22;;;;;;;19.27;52.97;101394.69;5037682;28;20048;-77
2022/09/04 00:41:13;;;;;;;4.97;3.60;;;;;;;19.32;53.00;101401.91;5051396;28;20028;-77
2022/09/04 00:44:15;;;;;;;6.53;3.85;;;;;;;19.39;52.97;101401.81;5052740;28;20052;-78
2022/09/04 00:47:05;;;;;;;6.53;4.47;;;;;;;19.20;53.71;101402.47;5052565;28;20052;-79
2022/09/04 00:49:58;;;;;;;7.95;4.80;;;;;;;19.07;53.63;101403.03;5055403;28;20055;-77
2022/09/04 00:52:27;;;;;;;6.50;4.47;;;;;;;18.99;54.35;101410.00;5038563;28;20024;-78
2022/09/04 00:55:20;;;;;;;4.32;3.88;;;;;;;19.01;54.04;101409.59;5053305;28;20124;-77
2022/09/04 00:58:07;;;;;;;7.55;4.38;;;;;;;19.12;53.84;101421.63;5058942;28;20421;-76
2022/09/04 01:00:34;;;;;;;5.63;3.92;;;;;;;19.25;53.23;101419.84;5037605;28;20036;-77
2022/09/04 01:03:06;;;;;;;6.88;4.28;;;;;;;19.21;53.20;101421.91;5058650;28;20508;-77
2022/09/04 01:06:02;;;;;;;6.65;4.15;;;;;;;19.03;54.24;101427.78;5061929;28;20029;-78
2022/09/04 01:09:02;;;;;;;5.88;4.07;;;;;;;19.17;53.42;101435.34;5057708;28;20427;-76
2022/09/04 01:11:42;;;;;;;5.18;3.90;;;;;;;19.16;53.59;101439.41;5030090;28;20084;-79
2022/09/04 01:14:25;;;;;;;7.55;4.40;;;;;;;19.09;53.46;101440.28;5052222;28;20049;-76
2022/09/04 01:16:50;;;;;;;;;;;;;;;19.08;53.37;101444.38;5037441;28;20035;-77
2022/09/04 01:19:27;;;;;;;7.77;4.33;;;;;;;19.04;53.56;101454.16;5043627;28;19916;-79
2022/09/04 01:22:20;;;;;;;7.75;4.60;;;;;;;18.85;54.13;101456.38;5052819;28;20285;-78
2022/09/04 01:25:06;;;;;;;6.78;4.72;;;;;;;18.91;54.18;101451.06;5036731;28;20556;-79
2022/09/04 01:27:40;;;;;;;5.95;4.20;;;;;;;18.92;54.31;101451.84;5055175;28;20047;-78
2022/09/04 01:30:13;;;;;;;8.30;5.35;;;;;;;18.86;54.50;101445.84;5055126;28;20035;-79
2022/09/04 01:32:52;;;;;;;6.13;4.10;;;;;;;18.93;54.35;101444.94;5034406;28;20044;-76
2022/09/04 01:35:23;;;;;;;6.30;4.55;;;;;;;18.96;54.21;101452.63;5057456;28;20507;-76
2022/09/04 01:38:16;;;;;;;7.43;4.50;;;;;;;18.95;54.29;101448.16;5057274;28;20442;-79
2022/09/04 01:40:48;;;;;;;6.82;4.90;;;;;;;18.85;54.68;101458.41;5058702;28;20033;-79
2022/09/04 01:43:19;;;;;;;5.30;4.75;;;;;;;18.87;54.63;101456.75;5038309;28;20642;-77
2022/09/04 01:45:45;;;;;;;6.65;4.63;;;;;;;18.95;54.27;101456.69;5043114;28;20123;-79
2022/09/04 01:48:16;;;;;;;6.55;4.97;;;;;;;18.81;54.95;101463.31;5057342;28;20464;-78
2022/09/04 01:50:47;;;;;;;8.07;5.57;;;;;;;18.75;55.06;101465.78;5044480;28;20500;-78
2022/09/04 01:53:21;;;;;;;6.10;5.00;;;;;;;18.69;55.40;101461.78;5041751;28;20377;-77
2022/09/04 01:56:16;;;;;;;7.65;4.57;;;;;;;18.82;55.76;101470.59;5041704;28;20039;-79
2022/09/04 01:58:54;;;;;;;6.78;5.22;;;;;;;18.77;54.87;101469.00;5040030;28;20559;-76
2022/09/04 02:01:51;;;;;;;7.80;5.30;;;;;;;18.84;55.18;101470.97;5050284;28;20472;-79
2022/09/04 02:04:46;;;;;;;5.85;4.55;;;;;;;18.84;55.32;101468.94;5057666;28;20496;-76
2022/09/04 02:07:30;;;;;;;7.78;5.57;;;;;;;18.66;55.71;101465.47;5057606;28;20052;-77
2022/09/04 02:10:26;;;;;;;7.25;4.93;;;;;;;18.67;56.28;101469.91;5049110;28;20066;-79
2022/09/04 02:12:58;;;;;;;7.07;5.60;;;;;;;18.62;56.74;101467.53;5034997;28;20390;-79
2022/09/04 02:15:51;;;;;;;7.83;5.20;;;;;;;18.71;56.25;101465.00;5057281;28;20021;-77
2022/09/04 02:18:46;;;;;;;7.53;5.68;;;;;;;18.63;56.09;101460.63;5058130;28;20041;-79
2022/09/04 02:21:31;;;;;;;9.57;5.13;;;;;;;18.64;56.66;101465.09;5038572;28;20036;-78
2022/09/04 02:24:12;;;;;;;7.15;5.30;;;;;;;18.61;56.59;101465.91;5051064;28;20024;-76
2022/09/04 02:27:01;;;;;;;5.97;5.20;;;;;;;18.54;56.60;101471.66;5048806;28;20036;-76
2022/09/04 02:29:56;;;;;;;6.70;5.38;;;;;;;18.57;56.49;101470.81;5056165;28;20036;-79
2022/09/04 02:32:47;;;;;;;6.45;4.68;;;;;;;18.53;56.63;101475.69;5057997;28;20070;-78
2022/09/04 02:35:46;;;;;;;13.55;5.72;;;;;;;18.50;56.49;101474.50;5044810;28;20037;-76
2022/09/04 02:38:29;;;;;;;7.80;5.60;;;;;;;18.38;57.54;101481.47;5057436;28;20056;-78
2022/09/04 02:41:16;;;;;;;5.97;5.30;;;;;;;18.39;57.28;101470.97;5037418;28;20045;-76
2022/09/04 02:44:27;;;;;;;6.88;5.00;;;;;;;18.44;56.75;101467.69;5039681;28;20370;-76
2022/09/04 02:47:16;;;;;;;8.60;6.38;;;;;;;18.33;56.96;101473.44;5046720;28;20072;-77
2022/09/04 02:50:19;;;;;;;9.23;5.95;;;;;;;18.39;56.94;101487.97;5037453;28;20047;-76
2022/09/04 02:53:02;;;;;;;;;;;;;;;18.28;57.04;101480.38;5057917;28;20040;-77
2022/09/04 02:56:08;;;;;;;8.10;6.25;;;;;;;18.25;57.11;101477.56;5052355;28;19975;-77
2022/09/04 02:58:49;;;;;;;7.40;5.88;;;;;;;18.37;57.24;101487.59;5042789;28;20582;-78
2022/09/04 03:01:52;;;;;;;6.20;5.60;;;;;;;18.27;57.41;101489.28;5054332;28;21429;-78
2022/09/04 03:04:23;;;;;;;6.70;5.95;;;;;;;18.37;56.59;101491.22;5040787;28;20741;-79
2022/09/04 03:06:53;;;;;;;7.88;5.90;;;;;;;18.19;58.01;101493.38;5060595;28;20032;-79
2022/09/04 03:09:27;;;;;;;9.15;6.50;;;;;;;18.03;58.00;101497.53;5058981;28;20036;-78
2022/09/04 03:11:59;;;;;;;7.85;6.13;;;;;;;18.13;57.61;101497.88;5052803;28;20036;-77
2022/09/04 03:14:48;;;;;;;;;;;;;;;18.22;57.38;101501.06;5037989;28;20037;-79
2022/09/04 03:17:27;;;;;;;8.40;6.53;;;;;;;18.20;56.99;101497.84;5047595;28;20434;-77
2022/09/04 03:20:03;;;;;;;7.93;6.45;;;;;;;18.13;57.36;101498.69;5056289;28;20043;-78
2022/09/04 03:23:08;;;;;;;6.90;5.88;;;;;;;18.10;57.83;101496.69;5057947;28;20173;-76
2022/09/04 03:25:45;;;;;;;9.25;5.85;;;;;;;17.91;58.40;101502.88;4939837;28;20110;-78
2022/09/04 03:28:37;;;;;;;6.25;5.22;;;;;;;17.98;57.97;101500.00;5038771;28;20089;-76
2022/09/04 03:31:24;;;;;;;9.73;5.93;;;;;;;17.94;58.16;101502.88;5025483;28;20123;-76
2022/09/04 03:34:06;;;;;;;9.70;6.95;;;;;;;17.97;57.71;101502.03;5040028;28;20704;-76
2022/09/04 03:37:00;;;;;;;7.10;5.20;;;;;;;17.96;57.96;101500.44;5053062;28;20066;-78
2022/09/04 03:39:42;;;;;;;7.85;5.40;;;;;;;18.00;57.83;101495.53;5036108;28;20131;-79
2022/09/04 03:42:43;;;;;;;7.32;5.97;;;;;;;17.83;58.60;101502.91;5039665;28;20400;-76
2022/09/04 03:45:35;;;;;;;8.25;5.50;;;;;;;17.79;58.53;101499.28;5041411;28;20400;-78
2022/09/04 03:48:16;;;;;;;10.63;6.78;;;;;;;17.74;58.69;101504.56;5039742;28;20101;-76
2022/09/04 03:51:11;;;;;;;7.95;5.75;;;;;;;17.66;59.06;101510.25;5062659;28;20028;-79
2022/09/04 03:53:44;;;;;;;8.63;6.03;;;;;;;17.83;58.22;101507.78;5045281;28;20143;-79
2022/09/04 03:56:31;;;;;;;8.60;6.00;;;;;;;17.73;58.53;101503.75;5059058;28;20032;-79
2022/09/04 03:59:03;;;;;;;9.02;6.40;;;;;;;17.82;58.21;101515.47;5060484;28;20508;-79
2022/09/04 04:01:50;;;;;;;13.05;6.93;;;;;;;17.77;58.05;101515.06;5041073;28;20432;-76
2022/09/04 04:04:55;;;;;;;6.80;5.45;;;;;;;17.84;57.82;101512.22;5054286;28;20056;-79
2022/09/04 04:07:52;;;;;;;7.15;5.93;;;;;;;17.82;58.20;101514.63;5040187;28;20047;-79
2022/09/04 04:10:44;;;;;;;7.82;6.22;;;;;;;17.70;58.76;101517.94;5015089;28;20209;-78
2022/09/04 04:13:34;;;;;;;6.40;5.15;;;;;;;17.75;57.80;101520.31;5043433;28;20067;-78
2022/09/04 04:16:18;;;;;;;7.75;5.10;;;;;;;17.83;57.99;101530.44;5055911;28;20013;-77
2022/09/04 04:18:52;;;;;;;9.77;5.68;;;;;;;17.80;58.12;101525.56;5056730;28;20075;-79
2022/09/04 04:21:36;;;;;;;9.55;5.70;;;;;;;17.81;58.31;101527.16;5039358;28;20043;-78
2022/09/04 04:24:13;;;;;;;6.63;5.63;;;;;;;17.75;58.34;101540.13;5038383;28;20070;-77
2022/09/04 04:27:01;;;;;;;6.45;5.60;;;;;;;17.67;58.99;101545.03;5037025;28;20445;-76
2022/09/04 04:29:48;;;;;;;6.75;5.57;;;;;;;17.76;57.88;101536.91;5040564;28;20036;-78
2022/09/04 04:32:26;;;;;;;8.35;5.57;;;;;;;17.66;57.93;101537.75;5052015;28;20048;-77
2022/09/04 04:35:40;;;;;;;6.68;5.93;;;;;;;17.76;58.40;101542.56;5040214;28;20033;-78
2022/09/04 04:38:20;;;;;;;;;;;;;;;17.55;58.93;101549.13;5040964;28;20079;-78
2022/09/04 04:41:19;;;;;;;7.18;5.68;;;;;;;17.72;58.87;101552.31;5036421;28;20423;-79
2022/09/04 04:44:07;;;;;;;6.15;5.55;;;;;;;17.68;58.30;101549.47;5051197;28;20028;-78
2022/09/04 04:46:41;;;;;;;7.03;4.97;;;;;;;17.67;58.52;101556.38;5049623;28;20037;-76
2022/09/04 04:49:18;;;;;;;6.63;5.78;;;;;;;17.59;58.66;101547.09;5056809;28;20044;-77
2022/09/04 04:51:52;;;;;;;9.57;6.00;;;;;;;17.56;59.09;101553.59;5054799;28;20488;-76
2022/09/04 04:54:52;;;;;;;7.15;6.18;;;;;;;17.52;59.15;101554.78;5040147;28;20407;-76
2022/09/04 04:57:41;;;;;;;6.18;5.47;;;;;;;17.49;59.23;101567.75;5053914;28;20033;-76
2022/09/04 05:00:18;;;;;;;7.28;5.78;;;;;;;17.52;58.40;101560.44;5055667;28;20085;-78
2022/09/04 05:03:20;;;;;;;10.57;6.07;;;;;;;17.59;58.68;101569.72;5053083;28;20055;-79
2022/09/04 05:06:13;;;;;;;6.63;5.90;;;;;;;17.45;58.89;101578.25;4998780;28;20037;-76
2022/09/04 05:08:49;;;;;;;7.28;5.68;;;;;;;17.55;59.00;101588.75;5054115;28;20400;-79
2022/09/04 05:11:42;;;;;;;7.30;5.72;;;;;;;17.52;59.36;101591.59;5043292;28;20036;-77
2022/09/04 05:14:27;;;;;;;8.55;5.82;;;;;;;17.48;59.09;101585.97;5039474;28;20052;-79
2022/09/04 05:17:18;;;;;;;7.40;6.15;;;;;;;17.54;58.82;101591.97;5058130;28;20036;-79
2022/09/04 05:19:47;;;;;;;6.32;5.72;;;;;;;17.50;58.76;101600.50;5060891;28;20044;-78
2022/09/04 05:22:28;;;;;;;7.90;6.28;;;;;;;17.55;59.74;101608.56;5060624;28;20051;-79
2022/09/04 05:25:15;;;;;;;6.22;5.60;;;;;;;17.52;58.95;101606.56;5058150;28;20028;-78
2022/09/04 05:28:21;;;;;;;7.97;6.25;;;;;;;17.51;59.37;101604.94;5058553;28;20119;-78
2022/09/04 05:31:06;;;;;;;8.48;6.00;;;;;;;17.35;60.08;101611.06;5062166;28;20060;-76
2022/09/04 05:34:09;;;;;;;7.35;5.97;;;;;;;17.37;60.25;101610.63;5058257;28;20792;-77
2022/09/04 05:37:10;;;;;;;10.88;6.45;;;;;;;17.40;60.80;101621.94;5030854;28;20044;-78
2022/09/04 05:39:56;;;;;;;14.70;7.07;;;;;;;17.40;60.93;101621.16;5058821;28;20052;-78
2022/09/04 05:42:48;;;;;;;12.10;6.68;;;;;;;17.28;60.09;101613.88;5036809;28;20051;-77
2022/09/04 05:45:44;;;;;;;6.75;5.45;;;;;;;17.35;59.95;101624.38;5057101;28;20025;-79
2022/09/04 05:48:29;;;;;;;6.47;5.68;;;;;;;17.39;59.68;101630.84;5052050;28;20042;-76
2022/09/04 05:51:21;;;;;;;6.90;5.90;;;;;;;17.44;60.17;101630.44;5061916;28;20040;-79
2022/09/04 05:54:04;;;;;;;8.23;7.07;;;;;;;17.35;60.29;101633.69;5043717;28;20419;-78
2022/09/04 05:56:58;;;;;;;7.95;6.40;;;;;;;17.31;60.07;101640.53;5060117;28;20448;-77
2022/09/04 05:59:47;;;;;;;12.30;7.25;;;;;;;17.32;60.38;101647.84;5060718;28;20487;-77
2022/09/04 06:02:41;;;;;;;8.25;6.28;;;;;;;17.20;61.14;101651.88;5042682;28;20393;-78
2022/09/04 06:05:28;;;;;;;7.45;6.57;;;;;;;17.25;60.68;101638.13;5059321;28;20111;-78
2022/09/04 06:08:38;;;;;;;8.40;6.43;;;;;;;17.44;59.61;101641.75;5057434;28;20155;-79
2022/09/04 06:11:29;;;;;;;8.40;6.57;;;;;;;17.46;59.19;101645.00;5035419;28;20045;-77
2022/09/04 06:14:18;;;;;;;9.95;6.57;;;;;;;17.39;61.71;101647.81;5063568;28;20029;-78
2022/09/04 06:17:08;;;;;;;8.45;6.63;;;;;;;17.43;61.33;101659.94;5038522;28;20421;-76
2022/09/04 06:19:48;;;;;;;6.68;5.95;;;;;;;17.32;60.40;101645.00;5059890;28;20033;-76
2022/09/04 06:22:22;;;;;;;10.82;7.10;;;;;;;17.49;60.29;101658.31;5041009;28;20179;-78
2022/09/04 06:25:06;;;;;;;6.85;6.15;;;;;;;17.37;60.04;101662.38;5051112;28;20024;-76
2022/09/04 06:28:09;;;;;;;8.75;6.88;;;;;;;17.41;59.65;101668.03;5053273;28;20066;-78
2022/09/04 06:31:05;;;;;;;8.23;6.55;;;;;;;17.52;60.51;101657.50;5038941;28;20020;-78
2022/09/04 06:33:55;;;;;;;7.80;6.82;;;;;;;17.46;60.92;101664.81;5060961;28;20665;-78
2022/09/04 06:36:42;;;;;;;8.70;7.70;;;;;;;17.39;62.49;101668.44;5048241;28;20033;-78
2022/09/04 06:39:37;;;;;;;7.85;6.07;;;;;;;17.50;60.81;101674.09;5062116;28;20391;-78
2022/09/04 06:42:27;;;;;;;12.10;7.88;;;;;;;17.45;61.58;101668.81;5063190;28;20047;-76
2022/09/04 06:45:03;;;;;;;7.80;7.03;;;;;;;17.50;62.21;101668.44;5064433;28;20507;-78
2022/09/04 06:47:37;;;;;;;9.25;6.82;;;;;;;17.50;61.71;101674.09;5059720;28;20032;-78
2022/09/04 06:50:28;;;;;;;6.13;5.53;;;;;;;17.65;59.47;101675.69;5044692;28;20084;-78
2022/09/04 06:53:00;;;;;;;10.52;6.75;;;;;;;17.67;60.03;101680.94;5058776;28;20043;-76
2022/09/04 06:55:37;;;;;;;13.57;8.38;;;;;;;17.71;62.76;101678.06;5060213;28;20032;-76
2022/09/04 06:58:21;;;;;;;8.57;6.35;;;;;;;17.68;61.52;101685.38;5060983;28;20036;-78
2022/09/04 07:01:10;;;;;;;13.48;9.00;;;;;;;17.43;62.26;101683.41;5058267;28;20480;-78
2022/09/04 07:03:59;;;;;;;9.73;6.40;;;;;;;17.71;60.06;101681.75;5059666;28;20029;-76
2022/09/04 07:06:50;;;;;;;11.93;7.65;;;;;;;17.72;61.36;101679.72;5058089;28;20036;-77
2022/09/04 07:09:25;;;;;;;10.45;6.65;;;;;;;17.89;60.39;101681.72;5044377;28;20032;-77
2022/09/04 07:12:06;;;;;;;8.77;7.88;;;;;;;17.85;61.26;101692.25;5052620;28;20032;-76
2022/09/04 07:15:10;;;;;;;9.85;8.13;;;;;;;17.87;64.28;101693.44;5055984;28;20029;-78
2022/09/04 07:17:54;;;;;;;14.20;10.73;;;;;;;17.68;67.76;101696.69;5058192;28;20048;-78
2022/09/04 07:20:48;;;;;;;15.07;10.63;;;;;;;17.78;67.83;101706.41;5058778;28;20032;-76
2022/09/04 07:23:21;;;;;;;13.32;9.27;;;;;;;17.83;67.58;101692.63;5057003;28;20072;-76
2022/09/04 07:26:17;;;;;;;14.02;11.15;;;;;;;17.90;68.77;101693.84;5055014;28;22028;-78
2022/09/04 07:29:01;;;;;;;17.15;13.27;;;;;;;17.84;69.34;101699.13;5049682;28;20074;-76
2022/09/04 07:31:40;;;;;;;20.85;12.63;;;;;;;17.94;69.79;101701.13;5038194;28;20039;-76
2022/09/04 07:34:23;;;;;;;16.85;11.57;;;;;;;17.95;66.13;101688.56;5052699;28;20123;-76
2022/09/04 07:37:00;;;;;;;13.82;10.25;;;;;;;18.15;67.93;101696.59;5051701;28;20024;-78
2022/09/04 07:39:44;;;;;;;12.73;6.72;;;;;;;18.92;65.43;101701.47;5049343;28;20036;-79
2022/09/04 07:42:33;;;;;;;7.22;5.57;;;;;;;20.09;61.25;101696.75;5051277;28;20045;-79
2022/09/04 07:45:07;;;;;;;13.65;7.35;;;;;;;20.28;60.86;101700.97;5051682;28;20024;-79
2022/09/04 07:47:41;;;;;;;16.73;11.38;;;;;;;19.87;61.46;101699.03;5059601;28;20059;-79
2022/09/04 07:50:21;;;;;;;16.50;12.43;;;;;;;19.65;63.56;101704.09;5058126;28;20107;-79
2022/09/04 07:53:14;;;;;;;16.38;10.40;;;;;;;19.40;66.19;101704.34;5059076;28;20099;-80
2022/09/04 07:55:46;;;;;;;12.73;6.72;;;;;;;19.90;63.41;101701.03;5046705;28;20030;-78
2022/09/04 07:58:36;;;;;;;14.57;7.30;;;;;;;20.43;62.05;101700.81;5042368;28;20162;-79
2022/09/04 08:01:35;;;;;;;13.43;7.43;;;;;;;20.49;61.59;101704.75;5033327;28;20036;-79
2022/09/04 08:04:31;;;;;;;9.32;7.05;;;;;;;20.58;61.55;101715.66;5059371;28;20021;-79
2022/09/04 08:07:04;;;;;;;9.25;7.57;;;;;;;20.79;61.03;101708.88;4955246;28;20035;-80
2022/09/04 08:10:29;;;;;;;11.00;8.10;;;;;;;20.78;61.07;101716.56;5061970;28;20036;-80
2022/09/04 08:12:55;;;;;;;11.88;7.50;;;;;;;20.80;60.96;101725.47;4973655;28;20046;-78
2022/09/04 08:15:48;;;;;;;11.23;8.82;;;;;;;20.56;64.01;101721.75;4977074;28;20588;-78
2022/09/04 08:18:29;;;;;;;13.70;10.70;;;;;;;20.66;62.59;101720.81;5034089;28;20048;-80
2022/09/04 08:21:27;;;;;;;13.65;7.22;;;;;;;20.61;63.03;101729.03;5058799;28;20078;-78
2022/09/04 08:24:01;;;;;;;10.65;7.57;;;;;;;20.83;62.17;101726.66;5043944;28;20028;-80
2022/09/04 08:26:47;;;;;;;22.67;15.75;;;;;;;20.61;66.28;101729.03;5048209;28;20613;-78
2022/09/04 08:29:40;;;;;;;14.00;9.63;;;;;;;20.55;64.29;101740.03;5018048;28;20049;-79
2022/09/04 08:32:31;;;;;;;25.15;17.45;;;;;;;20.40;67.89;101739.41;5040961;28;20048;-80
2022/09/04 08:35:11;;;;;;;23.52;14.98;;;;;;;20.57;66.84;101745.28;5035814;28;20032;-78
2022/09/04 08:37:49;;;;;;;16.02;11.88;;;;;;;20.71;66.52;101745.13;5058662;28;20045;-80
2022/09/04 08:40:56;;;;;;;22.70;17.05;;;;;;;20.56;67.66;101743.69;5059794;28;20518;-80
2022/09/04 08:43:59;;;;;;;15.55;11.05;;;;;;;20.79;66.70;101748.69;5037152;28;20043;-78
2022/09/04 08:47:00;;;;;;;25.95;16.98;;;;;;;20.87;65.62;101745.31;5059181;28;20090;-80
2022/09/04 08:49:54;;;;;;;26.50;13.32;;;;;;;20.97;64.49;101745.56;5020905;28;20523;-80
2022/09/04 08:52:38;;;;;;;22.38;15.10;;;;;;;21.13;66.81;101759.19;5044644;28;20032;-79
2022/09/04 08:55:34;;;;;;;25.13;15.95;;;;;;;21.31;67.42;101762.53;5041732;28;20546;-80
2022/09/04 08:58:20;;;;;;;21.50;14.80;;;;;;;21.35;66.42;101753.94;5058072;28;20108;-78
2022/09/04 09:00:48;;;;;;;22.30;15.65;;;;;;;21.47;66.37;101756.22;5058107;28;20032;-78
2022/09/04 09:04:02;;;;;;;21.95;16.23;;;;;;;21.38;65.73;101759.56;5047486;28;20490;-78
2022/09/04 09:07:06;;;;;;;19.42;15.27;;;;;;;21.74;65.78;101752.50;5059692;28;20037;-80
2022/09/04 09:09:58;;;;;;;23.55;15.52;;;;;;;21.89;64.56;101756.69;5041215;28;20036;-79
2022/09/04 09:12:48;;;;;;;21.50;14.60;;;;;;;21.84;63.92;101745.78;5058646;28;20052;-79
2022/09/04 09:15:41;;;;;;;23.63;15.27;;;;;;;21.88;64.56;101753.03;5054822;28;20040;-78
2022/09/04 09:18:54;;;;;;;19.23;14.30;;;;;;;22.03;65.07;101762.13;5059024;28;20028;-78
2022/09/04 09:21:48;;;;;;;17.55;9.60;;;;;;;22.08;62.43;101753.06;5036485;28;20075;-77
2022/09/04 09:24:44;;;;;;;21.38;13.18;;;;;;;22.13;64.41;101755.38;5059531;28;20438;-78
2022/09/04 09:27:10;;;;;;;21.88;13.68;;;;;;;22.33;64.22;101755.44;5052164;28;20111;-78
2022/09/04 09:30:06;;;;;;;22.00;13.68;;;;;;;22.42;64.59;101763.41;5053176;28;20128;-75
2022/09/04 09:32:47;;;;;;;21.38;11.90;;;;;;;22.32;63.85;101758.72;5055806;28;20451;-76
2022/09/04 09:35:54;;;;;;;20.10;13.52;;;;;;;22.60;63.55;101760.19;5034801;28;20123;-78
2022/09/04 09:38:49;;;;;;;19.65;11.88;;;;;;;22.84;62.61;101758.00;5039537;28;20033;-75
2022/09/04 09:41:45;;;;;;;22.33;13.05;;;;;;;23.06;61.60;101760.41;5038963;28;20117;-77
2022/09/04 09:44:32;;;;;;;15.30;11.32;;;;;;;23.09;61.77;101754.59;5057584;28;20098;-76
2022/09/04 09:47:03;;;;;;;18.65;11.75;;;;;;;23.27;61.02;101759.88;5037603;28;20057;-76
2022/09/04 09:50:19;;;;;;;15.17;10.23;;;;;;;23.10;62.13;101749.69;5039187;28;20036;-77
2022/09/04 09:53:16;;;;;;;16.48;11.57;;;;;;;23.43;61.67;101752.56;4999066;28;20048;-76
2022/09/04 09:56:07;;;;;;;15.82;10.43;;;;;;;23.42;60.52;101748.09;5050768;28;20040;-76
2022/09/04 09:59:16;;;;;;;18.55;11.43;;;;;;;23.48;60.01;101757.75;5050853;28;20459;-76
2022/09/04 10:01:55;;;;;;;16.08;10.68;;;;;;;23.60;59.95;101754.16;5040097;28;20720;-76
2022/09/04 10:04:49;;;;;;;18.30;12.75;;;;;;;23.57;60.44;101748.53;5059279;28;20056;-78
2022/09/04 10:07:25;;;;;;;20.40;12.05;;;;;;;23.72;60.90;101742.00;5039849;28;20060;-76
2022/09/04 10:10:03;;;;;;;16.58;10.93;;;;;;;23.87;59.75;101753.09;5054355;28;20024;-77
2022/09/04 10:12:49;;;;;;;14.90;10.82;;;;;;;24.17;58.80;101743.25;5030169;28;20497;-80
2022/09/04 10:15:47;;;;;;;20.27;11.20;;;;;;;24.06;58.73;101748.50;5054196;28;20039;-77
2022/09/04 10:19:00;;;;;;;17.38;11.80;;;;;;;24.09;58.05;101754.09;5057567;28;20051;-79
2022/09/04 10:21:34;;;;;;;17.52;10.48;;;;;;;23.97;58.48;101749.16;4969317;28;20027;-79
2022/09/04 10:24:28;;;;;;;17.38;9.65;;;;;;;24.28;57.82;101743.75;4969921;28;20850;-80
2022/09/04 10:27:37;;;;;;;14.80;9.55;;;;;;;24.46;57.15;101743.22;5028760;28;20067;-79
2022/09/04 10:30:05;;;;;;;15.05;9.43;;;;;;;24.45;57.12;101747.34;4967089;28;20046;-79
2022/09/04 10:32:31;;;;;;;13.38;8.98;;;;;;;24.68;55.80;101749.13;5029647;28;20076;-80
2022/09/04 10:35:16;;;;;;;16.08;10.07;;;;;;;24.64;55.70;101751.28;5034013;28;20480;-75
2022/09/04 10:37:52;;;;;;;15.68;9.05;;;;;;;24.64;55.83;101744.78;5042537;28;20055;-76
2022/09/04 10:41:07;;;;;;;17.60;9.05;;;;;;;24.66;55.96;101748.00;5047199;28;20059;-75
2022/09/04 10:43:51;;;;;;;18.98;9.75;;;;;;;24.59;56.29;101748.22;5004572;28;20029;-80
2022/09/04 10:46:17;;;;;;;16.20;9.75;;;;;;;24.92;55.23;101751.69;5058586;28;20036;-79
2022/09/04 10:48:57;;;;;;;13.60;8.93;;;;;;;24.84;55.74;101748.25;5056465;28;20098;-76
2022/09/04 10:51:33;;;;;;;13.40;8.48;;;;;;;25.02;53.94;101736.22;5060143;28;20032;-77
2022/09/04 10:54:33;;;;;;;15.48;9.63;;;;;;;25.05;54.86;101748.84;5060428;28;20135;-79
2022/09/04 10:57:17;;;;;;;14.55;8.35;;;;;;;25.34;54.03;101751.56;5026534;28;20044;-80
2022/09/04 11:00:04;;;;;;;14.40;8.95;;;;;;;25.44;53.23;101747.53;5037938;28;20090;-75
2022/09/04 11:03:02;;;;;;;12.02;8.32;;;;;;;25.37;54.15;101741.28;5057674;28;20029;-75
2022/09/04 11:05:31;;;;;;;13.35;8.80;;;;;;;25.12;53.79;101743.66;5040839;28;20193;-79
2022/09/04 11:08:12;;;;;;;17.75;9.32;;;;;;;24.89;54.81;101739.06;5045564;28;20032;-77
2022/09/04 11:10:49;;;;;;;12.30;8.43;;;;;;;24.85;54.71;101749.84;5036047;28;20166;-76
2022/09/04 11:13:55;;;;;;;11.48;7.72;;;;;;;24.81;55.27;101742.63;5036438;28;20552;-75
2022/09/04 11:16:35;;;;;;;12.45;9.27;;;;;;;25.48;54.69;101745.34;5050789;28;20448;-76
2022/09/04 11:19:38;;;;;;;14.50;9.25;;;;;;;25.34;54.21;101757.28;5050488;28;20111;-75
2022/09/04 11:22:34;;;;;;;11.65;8.48;;;;;;;25.41;53.38;101756.28;5049423;28;20047;-75
2022/09/04 11:25:08;;;;;;;9.18;7.47;;;;;;;25.85;51.70;101753.53;5058905;28;20037;-76
2022/09/04 11:27:58;;;;;;;10.93;8.43;;;;;;;25.76;50.58;101752.19;5059556;28;21866;-74
2022/09/04 11:30:32;;;;;;;13.15;8.07;;;;;;;25.85;51.18;101751.47;5055232;28;20037;-75
2022/09/04 11:33:10;;;;;;;13.10;7.70;;;;;;;26.07;51.25;101745.78;5056398;28;20079;-74
2022/09/04 11:35:56;;;;;;;13.38;8.50;;;;;;;26.16;51.12;101748.72;5058205;28;20048;-75
2022/09/04 11:38:54;;;;;;;12.63;9.43;;;;;;;26.36;49.68;101750.47;5059301;28;20068;-77
2022/09/04 11:41:19;;;;;;;11.40;9.20;;;;;;;26.66;49.02;101751.78;5059534;28;20078;-76
2022/09/04 11:44:13;;;;;;;11.40;8.43;;;;;;;26.57;48.59;101746.00;5055072;28;20044;-76
2022/09/04 11:47:16;;;;;;;16.83;9.38;;;;;;;26.27;49.16;101748.34;5056542;28;20457;-76
2022/09/04 11:49:58;;;;;;;17.75;7.95;;;;;;;26.07;49.82;101745.78;5057768;28;20047;-74
2022/09/04 11:52:51;;;;;;;11.00;8.35;;;;;;;26.06;49.46;101747.06;5060631;28;20059;-74
2022/09/04 11:55:33;;;;;;;23.95;7.65;;;;;;;26.28;49.54;101749.91;5054818;28;20504;-77
2022/09/04 11:58:29;;;;;;;14.07;8.23;;;;;;;26.49;48.32;101736.81;5055077;28;20040;-75
2022/09/04 12:01:09;;;;;;;12.93;7.60;;;;;;;26.28;49.02;101737.66;5051683;28;20037;-76
2022/09/04 12:04:02;;;;;;;12.52;8.60;;;;;;;26.14;49.54;101745.53;5054847;28;20024;-77
2022/09/04 12:06:36;;;;;;;13.18;8.20;;;;;;;26.25;50.61;101741.47;5038533;28;20040;-77
2022/09/04 12:09:27;;;;;;;12.73;8.18;;;;;;;26.96;46.61;101741.59;5042963;28;20427;-83
2022/09/04 12:12:21;;;;;;;12.73;9.63;;;;;;;27.09;46.17;101749.25;5067121;28;20029;-83
2022/09/04 12:15:10;;;;;;;13.70;9.57;;;;;;;27.21;45.49;101739.72;5065556;28;20028;-83
2022/09/04 12:18:04;;;;;;;11.20;8.43;;;;;;;27.17;46.13;101750.56;5063751;28;20043;-80
2022/09/04 12:20:54;;;;;;;12.75;8.30;;;;;;;27.56;44.75;101748.16;5065447;28;20503;-83
2022/09/04 12:23:38;;;;;;;12.93;8.98;;;;;;;27.21;44.57;101745.47;5062048;28;20099;-80
2022/09/04 12:26:30;;;;;;;9.85;7.72;;;;;;;27.48;44.95;101744.00;5049192;28;20552;-83
2022/09/04 12:29:25;;;;;;;11.43;8.90;;;;;;;27.27;45.02;101742.81;5064888;28;20033;-81
2022/09/04 12:32:02;;;;;;;11.25;7.53;;;;;;;27.88;44.27;101746.78;5053021;28;20044;-81
2022/09/04 12:34:42;;;;;;;11.23;7.35;;;;;;;27.94;45.03;101749.84;5065276;28;20025;-81
2022/09/04 12:37:26;;;;;;;9.70;7.70;;;;;;;28.04;43.22;101747.72;5042959;28;20041;-84
2022/09/04 12:40:05;;;;;;;9.63;7.13;;;;;;;28.02;43.51;101754.00;5063463;28;20052;-81
2022/09/04 12:42:51;;;;;;;14.43;7.93;;;;;;;28.26;42.48;101747.56;5051127;28;20391;-84
2022/09/04 12:45:28;;;;;;;16.35;8.57;;;;;;;28.25;42.61;101751.72;5038830;28;20507;-81
2022/09/04 12:48:26;;;;;;;11.18;8.68;;;;;;;28.14;43.42;101747.25;5065743;28;20384;-83
2022/09/04 12:51:11;;;;;;;12.98;8.30;;;;;;;28.01;44.91;101748.72;5058148;28;20035;-80
2022/09/04 12:54:01;;;;;;;11.80;8.57;;;;;;;27.91;44.85;101745.84;5060490;28;20170;-81